createdAt,value
2022-10-22T00:01:17.884Z,100370.58
2022-10-22T00:03:45.857Z,100369.98
2022-10-22T00:06:13.986Z,100369.81
2022-10-22T00:08:41.728Z,100368.45
2022-10-22T00:11:15.476Z,100375.11
2022-10-22T00:13:44.280Z,100372.49
2022-10-22T00:16:12.185Z,100373.20
2022-10-22T00:18:40.566Z,100374.63
2022-10-22T00:21:08.450Z,100372.04
2022-10-22T00:23:36.373Z,100366.44
2022-10-22T00:26:04.346Z,100363.87
2022-10-22T00:28:32.272Z,100357.30
2022-10-22T00:31:01.204Z,100352.40
2022-10-22T00:33:29.775Z,100349.64
2022-10-22T00:35:58.160Z,100345.02
2022-10-22T00:38:26.123Z,100345.00
2022-10-22T00:40:53.959Z,100345.45
2022-10-22T00:43:22.195Z,100347.05
2022-10-22T00:45:50.107Z,100347.08
2022-10-22T00:48:27.315Z,100341.14
2022-10-22T00:51:01.035Z,100340.36
2022-10-22T00:53:34.670Z,100342.07
2022-10-22T00:56:02.773Z,100343.23
2022-10-22T00:58:35.003Z,100345.70
2022-10-22T01:01:04.131Z,100348.66
2022-10-22T01:03:32.948Z,100350.17
2022-10-22T01:06:04.267Z,100349.27
2022-10-22T01:08:34.993Z,100346.96
2022-10-22T01:11:34.527Z,100339.32
2022-10-22T01:14:25.272Z,100342.47
2022-10-22T01:17:01.966Z,100339.45
2022-10-22T01:19:44.679Z,100344.63
2022-10-22T01:22:32.693Z,100341.77
2022-10-22T01:25:35.894Z,100339.27
2022-10-22T01:28:26.317Z,100338.33
2022-10-22T01:30:57.803Z,100335.27
2022-10-22T01:33:28.191Z,100331.08
2022-10-22T01:35:57.580Z,100329.85
2022-10-22T01:38:26.483Z,100326.80
2022-10-22T01:40:54.673Z,100327.31
2022-10-22T01:43:22.977Z,100314.91
2022-10-22T01:45:56.417Z,100310.39
2022-10-22T01:48:49.157Z,100309.28
2022-10-22T01:51:32.066Z,100306.49
2022-10-22T01:54:06.880Z,100309.88
2022-10-22T01:57:04.689Z,100304.75
2022-10-22T02:00:01.388Z,100295.05
2022-10-22T02:02:35.963Z,100291.75
2022-10-22T02:05:16.742Z,100293.48
2022-10-22T02:07:49.521Z,100292.02
2022-10-22T02:10:18.398Z,100295.90
2022-10-22T02:12:50.418Z,100295.25
2022-10-22T02:15:21.263Z,100298.97
2022-10-22T02:17:49.817Z,100302.65
2022-10-22T02:20:22.783Z,100303.33
2022-10-22T02:22:50.764Z,100298.27
2022-10-22T02:25:21.303Z,100297.98
2022-10-22T02:28:02.888Z,100299.62
2022-10-22T02:30:32.945Z,100306.13
2022-10-22T02:33:11.973Z,100300.70
2022-10-22T02:35:41.668Z,100305.86
2022-10-22T02:38:10.926Z,100302.40
2022-10-22T02:40:39.227Z,100303.52
2022-10-22T02:43:07.239Z,100307.60
2022-10-22T02:45:35.287Z,100307.81
2022-10-22T02:48:05.003Z,100310.09
2022-10-22T02:50:32.848Z,100310.91
2022-10-22T02:53:00.585Z,100309.92
2022-10-22T02:55:28.445Z,100308.36
2022-10-22T02:57:56.284Z,100308.17
2022-10-22T03:00:24.118Z,100307.42
2022-10-22T03:02:52.273Z,100310.70
2022-10-22T03:05:20.095Z,100312.02
2022-10-22T03:07:47.882Z,100313.06
2022-10-22T03:10:15.929Z,100312.05
2022-10-22T03:12:43.792Z,100317.01
2022-10-22T03:15:11.567Z,100318.02
2022-10-22T03:17:39.492Z,100317.18
2022-10-22T03:20:07.900Z,100322.61
2022-10-22T03:22:39.341Z,100326.48
2022-10-22T03:25:12.337Z,100331.95
2022-10-22T03:27:42.109Z,100331.09
2022-10-22T03:30:10.662Z,100330.89
2022-10-22T03:32:38.756Z,100332.62
2022-10-22T03:35:07.202Z,100333.75
2022-10-22T03:37:36.852Z,100331.98
2022-10-22T03:40:07.649Z,100328.58
2022-10-22T03:42:35.448Z,100322.69
2022-10-22T03:45:04.095Z,100321.08
2022-10-22T03:47:31.985Z,100320.65
2022-10-22T03:49:59.865Z,100321.04
2022-10-22T03:52:28.075Z,100316.65
2022-10-22T03:54:55.856Z,100315.77
2022-10-22T03:57:23.549Z,100315.79
2022-10-22T03:59:51.495Z,100315.86
2022-10-22T04:02:19.438Z,100311.71
2022-10-22T04:04:47.267Z,100305.84
2022-10-22T04:07:15.155Z,100304.67
2022-10-22T04:09:42.951Z,100299.95
2022-10-22T04:12:10.766Z,100299.23
2022-10-22T04:14:38.466Z,100301.11
2022-10-22T04:17:06.280Z,100299.49
2022-10-22T04:19:34.071Z,100298.41
2022-10-22T04:22:01.798Z,100298.62
2022-10-22T04:24:31.625Z,100303.73
2022-10-22T04:26:59.898Z,100298.79
2022-10-22T04:29:27.733Z,100298.13
2022-10-22T04:31:55.469Z,100294.31
2022-10-22T04:34:23.457Z,100289.09
2022-10-22T04:36:51.155Z,100289.81
2022-10-22T04:39:19.002Z,100290.95
2022-10-22T04:41:46.792Z,100292.06
2022-10-22T04:44:17.156Z,100295.61
2022-10-22T04:46:45.939Z,100297.48
2022-10-22T04:49:13.854Z,100298.22
2022-10-22T04:51:41.801Z,100300.70
2022-10-22T04:54:09.723Z,100299.34
2022-10-22T04:56:37.918Z,100304.14
2022-10-22T04:59:09.345Z,100304.33
2022-10-22T05:01:42.929Z,100300.56
2022-10-22T05:04:14.185Z,100301.91
2022-10-22T05:06:42.092Z,100306.73
2022-10-22T05:09:17.832Z,100307.42
2022-10-22T05:11:49.869Z,100305.17
2022-10-22T05:14:21.111Z,100312.58
2022-10-22T05:16:49.753Z,100307.95
2022-10-22T05:19:24.346Z,100310.45
2022-10-22T05:21:54.177Z,100310.45
2022-10-22T05:24:23.665Z,100307.44
2022-10-22T05:26:58.043Z,100301.37
2022-10-22T05:29:28.971Z,100303.20
2022-10-22T05:31:58.103Z,100309.27
2022-10-22T05:34:30.592Z,100308.35
2022-10-22T05:37:00.787Z,100309.01
2022-10-22T05:39:28.675Z,100312.98
2022-10-22T05:41:57.083Z,100307.80
2022-10-22T05:44:25.032Z,100301.79
2022-10-22T05:46:52.912Z,100295.19
2022-10-22T05:49:20.701Z,100298.79
2022-10-22T05:51:48.445Z,100297.73
2022-10-22T05:54:22.166Z,100302.23
2022-10-22T05:56:50.069Z,100305.70
2022-10-22T05:59:17.753Z,100311.30
2022-10-22T06:01:45.695Z,100319.71
2022-10-22T06:04:13.881Z,100319.79
2022-10-22T06:06:50.295Z,100322.53
2022-10-22T06:09:29.263Z,100323.16
2022-10-22T06:11:58.203Z,100323.52
2022-10-22T06:14:27.117Z,100321.65
2022-10-22T06:16:55.909Z,100323.08
2022-10-22T06:19:26.793Z,100315.15
2022-10-22T06:21:54.600Z,100315.83
2022-10-22T06:24:22.733Z,100319.42
2022-10-22T06:26:52.058Z,100323.89
2022-10-22T06:29:20.388Z,100339.06
2022-10-22T06:31:49.132Z,100338.95
2022-10-22T06:34:18.999Z,100341.52
2022-10-22T06:36:47.368Z,100346.30
2022-10-22T06:39:17.352Z,100346.20
2022-10-22T06:41:45.775Z,100352.85
2022-10-22T06:44:18.435Z,100350.27
2022-10-22T06:46:49.225Z,100354.88
2022-10-22T06:49:17.256Z,100359.50
2022-10-22T06:51:45.208Z,100353.36
2022-10-22T06:54:16.214Z,100347.36
2022-10-22T06:56:44.025Z,100343.71
2022-10-22T06:59:11.745Z,100345.05
2022-10-22T07:01:39.771Z,100346.84
2022-10-22T07:04:08.951Z,100345.61
2022-10-22T07:06:36.965Z,100359.06
2022-10-22T07:09:04.956Z,100362.64
2022-10-22T07:11:44.729Z,100364.90
2022-10-22T07:14:14.103Z,100358.67
2022-10-22T07:16:46.865Z,100356.86
2022-10-22T07:19:14.898Z,100352.71
2022-10-22T07:21:42.659Z,100356.52
2022-10-22T07:24:10.420Z,100352.63
2022-10-22T07:26:38.213Z,100357.88
2022-10-22T07:29:06.234Z,100362.41
2022-10-22T07:31:34.050Z,100366.90
2022-10-22T07:34:01.814Z,100373.03
2022-10-22T07:36:29.556Z,100377.46
2022-10-22T07:38:59.292Z,100376.29
2022-10-22T07:41:28.873Z,100372.92
2022-10-22T07:43:57.416Z,100372.73
2022-10-22T07:46:26.358Z,100377.39
2022-10-22T07:48:54.533Z,100377.47
2022-10-22T07:51:22.542Z,100369.03
2022-10-22T07:53:50.345Z,100373.01
2022-10-22T07:56:18.173Z,100375.80
2022-10-22T07:58:46.060Z,100374.89
2022-10-22T08:01:13.924Z,100370.70
2022-10-22T08:03:41.697Z,100370.06
2022-10-22T08:06:12.990Z,100370.19
2022-10-22T08:08:42.052Z,100368.52
2022-10-22T08:11:10.100Z,100373.85
2022-10-22T08:13:42.754Z,100372.73
2022-10-22T08:16:13.601Z,100370.13
2022-10-22T08:18:41.893Z,100368.05
2022-10-22T08:21:10.618Z,100359.71
2022-10-22T08:23:38.719Z,100360.23
2022-10-22T08:26:06.595Z,100362.13
2022-10-22T08:28:37.128Z,100360.45
2022-10-22T08:31:07.561Z,100362.59
2022-10-22T08:33:35.258Z,100368.20
2022-10-22T08:36:03.143Z,100365.13
2022-10-22T08:38:35.296Z,100366.91
2022-10-22T08:41:12.076Z,100359.24
2022-10-22T08:44:18.572Z,100353.09
2022-10-22T08:46:51.036Z,100354.69
2022-10-22T08:49:35.107Z,100350.92
2022-10-22T08:52:05.579Z,100349.69
2022-10-22T08:54:39.240Z,100353.98
2022-10-22T08:57:09.795Z,100363.02
2022-10-22T08:59:50.519Z,100366.41
2022-10-22T09:02:56.831Z,100360.30
2022-10-22T09:05:48.435Z,100365.16
2022-10-22T09:08:19.484Z,100367.60
2022-10-22T09:11:09.275Z,100372.36
2022-10-22T09:13:37.825Z,100369.79
2022-10-22T09:16:16.404Z,100365.99
2022-10-22T09:19:23.634Z,100363.15
2022-10-22T09:22:19.430Z,100365.46
2022-10-22T09:24:53.348Z,100369.23
2022-10-22T09:27:28.072Z,100369.48
2022-10-22T09:29:56.279Z,100369.56
2022-10-22T09:32:25.301Z,100372.13
2022-10-22T09:34:57.235Z,100373.52
2022-10-22T09:37:28.348Z,100370.88
2022-10-22T09:39:59.113Z,100370.81
2022-10-22T09:42:26.935Z,100370.47
2022-10-22T09:44:59.697Z,100366.67
2022-10-22T09:47:42.540Z,100359.98
2022-10-22T09:50:50.644Z,100359.26
2022-10-22T09:53:35.426Z,100358.09
2022-10-22T09:56:17.375Z,100364.96
2022-10-22T09:58:49.393Z,100365.02
2022-10-22T10:01:21.936Z,100360.25
2022-10-22T10:03:50.306Z,100358.75
2022-10-22T10:06:20.054Z,100358.36
2022-10-22T10:08:48.913Z,100357.59
2022-10-22T10:11:29.218Z,100360.24
2022-10-22T10:14:16.160Z,100356.81
2022-10-22T10:17:12.014Z,100353.25
2022-10-22T10:20:03.767Z,100357.13
2022-10-22T10:22:47.319Z,100352.52
2022-10-22T10:25:43.021Z,100353.10
2022-10-22T10:28:10.658Z,100353.98
2022-10-22T10:30:50.733Z,100359.13
2022-10-22T10:33:53.740Z,100355.39
2022-10-22T10:36:24.292Z,100354.20
2022-10-22T10:39:06.309Z,100348.13
2022-10-22T10:41:50.065Z,100347.69
2022-10-22T10:44:36.649Z,100341.98
2022-10-22T10:47:50.612Z,100338.19
2022-10-22T10:50:32.448Z,100331.80
2022-10-22T10:53:52.548Z,100335.84
2022-10-22T10:56:39.307Z,100333.48
2022-10-22T10:59:23.474Z,100334.58
2022-10-22T11:02:08.165Z,100326.94
2022-10-22T11:05:02.423Z,100318.94
2022-10-22T11:07:56.149Z,100317.20
2022-10-22T11:10:41.618Z,100321.75
2022-10-22T11:13:37.093Z,100312.27
2022-10-22T11:16:26.168Z,100307.16
2022-10-22T11:19:03.418Z,100311.23
2022-10-22T11:21:49.550Z,100301.98
2022-10-22T11:24:26.112Z,100304.73
2022-10-22T11:27:02.872Z,100299.44
2022-10-22T11:29:39.201Z,100298.77
2022-10-22T11:32:14.305Z,100291.42
2022-10-22T11:34:48.614Z,100291.90
2022-10-22T11:37:17.251Z,100287.83
2022-10-22T11:39:54.400Z,100287.44
2022-10-22T11:42:33.241Z,100284.59
2022-10-22T11:45:03.042Z,100285.17
2022-10-22T11:47:42.153Z,100279.76
2022-10-22T11:50:23.027Z,100279.87
2022-10-22T11:52:53.562Z,100271.78
2022-10-22T11:55:33.323Z,100268.04
2022-10-22T11:58:03.042Z,100266.14
2022-10-22T12:00:39.724Z,100263.94
2022-10-22T12:03:33.187Z,100261.98
2022-10-22T12:06:13.411Z,100263.20
2022-10-22T12:08:56.773Z,100262.95
2022-10-22T12:11:41.422Z,100261.59
2022-10-22T12:14:23.067Z,100260.41
2022-10-22T12:16:57.446Z,100256.01
2022-10-22T12:19:28.725Z,100253.11
2022-10-22T12:22:11.597Z,100248.21
2022-10-22T12:24:46.734Z,100250.81
2022-10-22T12:27:33.294Z,100247.98
2022-10-22T12:30:02.597Z,100248.29
2022-10-22T12:32:41.164Z,100246.78
2022-10-22T12:35:17.607Z,100247.56
2022-10-22T12:37:48.963Z,100244.97
2022-10-22T12:40:22.086Z,100245.19
2022-10-22T12:42:52.491Z,100238.77
2022-10-22T12:45:21.223Z,100235.52
2022-10-22T12:47:51.494Z,100225.10
2022-10-22T12:50:23.206Z,100222.70
2022-10-22T12:52:54.362Z,100225.70
2022-10-22T12:55:25.985Z,100219.36
2022-10-22T12:57:54.007Z,100214.80
2022-10-22T13:00:28.395Z,100212.20
2022-10-22T13:03:00.313Z,100210.89
2022-10-22T13:05:34.190Z,100215.44
2022-10-22T13:08:16.963Z,100210.11
2022-10-22T13:10:53.273Z,100212.92
2022-10-22T13:13:45.571Z,100210.64
2022-10-22T13:16:19.414Z,100214.77
2022-10-22T13:18:48.406Z,100209.30
2022-10-22T13:21:38.762Z,100208.57
2022-10-22T13:24:24.173Z,100213.94
2022-10-22T13:26:54.375Z,100207.76
2022-10-22T13:29:24.146Z,100205.73
2022-10-22T13:31:53.251Z,100205.63
2022-10-22T13:34:24.130Z,100203.36
2022-10-22T13:36:52.518Z,100204.25
2022-10-22T13:39:22.846Z,100202.77
2022-10-22T13:41:51.681Z,100202.08
2022-10-22T13:44:19.896Z,100201.56
2022-10-22T13:46:48.569Z,100194.66
2022-10-22T13:49:20.446Z,100199.55
2022-10-22T13:51:48.282Z,100199.39
2022-10-22T13:54:19.736Z,100200.27
2022-10-22T13:56:47.594Z,100198.08
2022-10-22T13:59:17.334Z,100199.36
2022-10-22T14:01:47.735Z,100197.05
2022-10-22T14:04:15.626Z,100194.48
2022-10-22T14:06:43.920Z,100196.32
2022-10-22T14:09:15.894Z,100199.27
2022-10-22T14:11:43.845Z,100198.65
2022-10-22T14:14:17.273Z,100201.42
2022-10-22T14:16:45.184Z,100201.89
2022-10-22T14:19:16.629Z,100195.67
2022-10-22T14:21:44.670Z,100195.17
2022-10-22T14:24:13.403Z,100194.60
2022-10-22T14:26:41.550Z,100192.99
2022-10-22T14:29:10.614Z,100189.73
2022-10-22T14:31:44.583Z,100187.40
2022-10-22T14:34:15.987Z,100188.27
2022-10-22T14:36:44.321Z,100183.33
2022-10-22T14:39:13.004Z,100182.48
2022-10-22T14:41:41.875Z,100178.98
2022-10-22T14:44:14.330Z,100180.80
2022-10-22T14:46:49.137Z,100176.48
2022-10-22T14:49:16.946Z,100173.34
2022-10-22T14:51:44.776Z,100174.10
2022-10-22T14:54:12.621Z,100170.73
2022-10-22T14:56:40.392Z,100166.16
2022-10-22T14:59:08.139Z,100158.98
2022-10-22T15:01:35.952Z,100155.59
2022-10-22T15:04:03.830Z,100150.95
2022-10-22T15:06:31.702Z,100153.86
2022-10-22T15:09:02.037Z,100152.60
2022-10-22T15:11:29.934Z,100147.69
2022-10-22T15:13:57.729Z,100137.65
2022-10-22T15:16:26.056Z,100141.01
2022-10-22T15:18:53.997Z,100139.02
2022-10-22T15:21:23.232Z,100133.02
2022-10-22T15:23:51.148Z,100135.05
2022-10-22T15:26:19.822Z,100134.25
2022-10-22T15:28:47.734Z,100129.63
2022-10-22T15:31:15.838Z,100132.31
2022-10-22T15:33:43.832Z,100127.79
2022-10-22T15:36:16.357Z,100128.91
2022-10-22T15:38:44.231Z,100125.78
2022-10-22T15:41:13.355Z,100135.16
2022-10-22T15:43:41.228Z,100134.64
2022-10-22T15:46:13.484Z,100134.65
2022-10-22T15:48:41.889Z,100129.05
2022-10-22T15:51:18.634Z,100125.67
2022-10-22T15:53:52.273Z,100122.09
2022-10-22T15:56:20.838Z,100124.64
2022-10-22T15:58:53.297Z,100127.94
2022-10-22T16:01:21.338Z,100130.39
2022-10-22T16:03:53.473Z,100131.73
2022-10-22T16:06:21.421Z,100132.25
2022-10-22T16:08:49.209Z,100135.90
2022-10-22T16:11:17.119Z,100134.13
2022-10-22T16:13:44.877Z,100132.90
2022-10-22T16:16:12.662Z,100133.98
2022-10-22T16:18:40.395Z,100132.67
2022-10-22T16:21:12.618Z,100129.89
2022-10-22T16:23:41.688Z,100133.05
2022-10-22T16:26:09.601Z,100136.05
2022-10-22T16:28:39.979Z,100131.67
2022-10-22T16:31:10.832Z,100133.75
2022-10-22T16:33:42.938Z,100141.56
2022-10-22T16:36:14.915Z,100144.52
2022-10-22T16:38:42.637Z,100146.59
2022-10-22T16:41:16.635Z,100144.60
2022-10-22T16:43:48.403Z,100147.42
2022-10-22T16:46:18.692Z,100150.95
2022-10-22T16:48:51.721Z,100153.01
2022-10-22T16:51:22.669Z,100149.87
2022-10-22T16:53:55.078Z,100146.96
2022-10-22T16:56:23.316Z,100140.50
2022-10-22T16:58:53.803Z,100142.14
2022-10-22T17:01:25.850Z,100144.35
2022-10-22T17:03:56.424Z,100140.20
2022-10-22T17:06:25.259Z,100130.98
2022-10-22T17:08:53.452Z,100126.83
2022-10-22T17:11:22.944Z,100126.92
2022-10-22T17:13:53.460Z,100126.55
2022-10-22T17:16:23.619Z,100121.92
2022-10-22T17:18:53.535Z,100119.76
2022-10-22T17:21:22.327Z,100115.31
2022-10-22T17:23:55.032Z,100110.02
2022-10-22T17:26:23.196Z,100117.52
2022-10-22T17:28:50.986Z,100120.33
2022-10-22T17:31:28.058Z,100122.48
2022-10-22T17:33:57.137Z,100122.31
2022-10-22T17:36:28.353Z,100123.02
2022-10-22T17:39:02.185Z,100117.71
2022-10-22T17:41:32.582Z,100115.05
2022-10-22T17:44:03.292Z,100113.14
2022-10-22T17:46:32.465Z,100118.53
2022-10-22T17:49:07.094Z,100122.19
2022-10-22T17:51:35.116Z,100119.55
2022-10-22T17:54:05.980Z,100119.48
2022-10-22T17:56:37.676Z,100121.29
2022-10-22T17:59:06.065Z,100120.27
2022-10-22T18:01:35.834Z,100113.70
2022-10-22T18:04:06.269Z,100113.77
2022-10-22T18:06:34.664Z,100118.77
2022-10-22T18:09:08.394Z,100116.30
2022-10-22T18:11:39.076Z,100114.21
2022-10-22T18:14:07.033Z,100121.09
2022-10-22T18:16:34.756Z,100118.00
2022-10-22T18:19:02.720Z,100117.48
2022-10-22T18:21:30.645Z,100128.31
2022-10-22T18:23:59.448Z,100132.84
2022-10-22T18:26:27.378Z,100130.46
2022-10-22T18:28:57.504Z,100131.51
2022-10-22T18:31:27.044Z,100128.55
2022-10-22T18:33:55.772Z,100134.02
2022-10-22T18:36:26.191Z,100141.20
2022-10-22T18:38:59.240Z,100143.28
2022-10-22T18:41:28.303Z,100147.17
2022-10-22T18:44:01.179Z,100151.50
2022-10-22T18:46:30.339Z,100156.90
2022-10-22T18:48:59.012Z,100164.58
2022-10-22T18:51:32.631Z,100171.95
2022-10-22T18:54:11.236Z,100174.59
2022-10-22T18:56:46.394Z,100180.04
2022-10-22T18:59:20.207Z,100189.95
2022-10-22T19:01:48.845Z,100198.48
2022-10-22T19:04:16.858Z,100204.38
2022-10-22T19:06:45.969Z,100208.78
2022-10-22T19:09:15.446Z,100215.84
2022-10-22T19:11:47.190Z,100217.61
2022-10-22T19:14:15.192Z,100216.10
2022-10-22T19:16:42.967Z,100222.52
2022-10-22T19:19:11.447Z,100230.13
2022-10-22T19:21:39.424Z,100235.11
2022-10-22T19:24:07.316Z,100240.63
2022-10-22T19:26:35.081Z,100240.89
2022-10-22T19:29:03.611Z,100247.31
2022-10-22T19:31:31.773Z,100252.14
2022-10-22T19:34:02.741Z,100257.42
2022-10-22T19:36:32.669Z,100256.34
2022-10-22T19:39:01.814Z,100262.36
2022-10-22T19:41:31.384Z,100270.66
2022-10-22T19:44:00.667Z,100275.38
2022-10-22T19:46:30.083Z,100280.92
2022-10-22T19:48:58.285Z,100292.63
2022-10-22T19:51:29.901Z,100291.42
2022-10-22T19:54:00.239Z,100302.78
2022-10-22T19:56:29.098Z,100306.27
2022-10-22T19:58:57.748Z,100304.91
2022-10-22T20:01:26.397Z,100305.25
2022-10-22T20:03:54.656Z,100304.98
2022-10-22T20:06:24.065Z,100304.59
2022-10-22T20:08:55.229Z,100307.52
2022-10-22T20:11:27.774Z,100305.71
2022-10-22T20:13:56.712Z,100314.60
2022-10-22T20:16:28.586Z,100318.53
2022-10-22T20:19:01.804Z,100319.34
2022-10-22T20:21:30.477Z,100323.05
2022-10-22T20:23:59.038Z,100332.94
2022-10-22T20:26:28.352Z,100330.34
2022-10-22T20:28:57.553Z,100326.08
2022-10-22T20:31:28.574Z,100325.98
2022-10-22T20:33:58.779Z,100320.63
2022-10-22T20:36:28.301Z,100328.56
2022-10-22T20:39:07.395Z,100331.02
2022-10-22T20:41:37.914Z,100333.08
2022-10-22T20:44:07.441Z,100334.10
2022-10-22T20:46:35.349Z,100336.06
2022-10-22T20:49:09.990Z,100333.98
2022-10-22T20:51:38.106Z,100329.11
2022-10-22T20:54:07.634Z,100329.02
2022-10-22T20:56:37.964Z,100329.52
2022-10-22T20:59:08.484Z,100330.90
2022-10-22T21:01:37.814Z,100337.64
2022-10-22T21:04:06.630Z,100352.08
2022-10-22T21:06:38.011Z,100357.08
2022-10-22T21:09:07.766Z,100370.31
2022-10-22T21:11:37.250Z,100376.39
2022-10-22T21:14:06.896Z,100379.77
2022-10-22T21:16:35.438Z,100392.23
2022-10-22T21:19:03.194Z,100400.70
2022-10-22T21:21:31.016Z,100406.34
2022-10-22T21:23:58.732Z,100421.84
2022-10-22T21:26:26.654Z,100434.13
2022-10-22T21:28:54.342Z,100444.50
2022-10-22T21:31:24.158Z,100440.02
2022-10-22T21:33:53.461Z,100440.20
2022-10-22T21:36:23.150Z,100438.23
2022-10-22T21:38:52.276Z,100430.70
2022-10-22T21:41:23.140Z,100425.84
2022-10-22T21:43:51.311Z,100423.46
2022-10-22T21:46:25.481Z,100424.23
2022-10-22T21:48:59.309Z,100419.48
2022-10-22T21:51:27.469Z,100413.60
2022-10-22T21:53:55.350Z,100413.40
2022-10-22T21:56:26.119Z,100418.86
2022-10-22T21:58:54.631Z,100433.02
2022-10-22T22:01:23.117Z,100446.02
2022-10-22T22:03:52.446Z,100459.30
2022-10-22T22:06:23.178Z,100465.13
2022-10-22T22:08:53.750Z,100469.69
2022-10-22T22:11:26.895Z,100472.00
2022-10-22T22:13:56.107Z,100468.68
2022-10-22T22:16:28.452Z,100467.36
2022-10-22T22:18:59.040Z,100461.65
2022-10-22T22:21:27.547Z,100459.77
2022-10-22T22:23:56.676Z,100457.65
2022-10-22T22:26:29.559Z,100454.89
2022-10-22T22:28:59.679Z,100453.49
2022-10-22T22:31:29.073Z,100454.53
2022-10-22T22:34:04.220Z,100459.15
2022-10-22T22:36:37.962Z,100457.30
2022-10-22T22:39:08.656Z,100460.25
2022-10-22T22:41:36.467Z,100464.88
2022-10-22T22:44:04.317Z,100468.45
2022-10-22T22:46:32.583Z,100469.85
2022-10-22T22:49:00.839Z,100469.92
2022-10-22T22:51:28.645Z,100465.80
2022-10-22T22:54:00.388Z,100460.25
2022-10-22T22:56:30.074Z,100462.55
2022-10-22T22:58:58.444Z,100474.20
2022-10-22T23:01:31.216Z,100480.61
2022-10-22T23:04:11.683Z,100479.25
2022-10-22T23:06:39.932Z,100481.45
2022-10-22T23:09:10.026Z,100483.63
2022-10-22T23:11:39.242Z,100480.36
2022-10-22T23:14:08.449Z,100481.48
2022-10-22T23:16:38.110Z,100481.55
2022-10-22T23:19:06.372Z,100483.13
2022-10-22T23:21:37.572Z,100484.27
2022-10-22T23:24:09.184Z,100482.97
2022-10-22T23:26:41.333Z,100487.77
2022-10-22T23:29:14.333Z,100495.89
2022-10-22T23:31:43.223Z,100491.95
2022-10-22T23:34:12.801Z,100500.77
2022-10-22T23:36:40.819Z,100498.92
2022-10-22T23:39:12.066Z,100503.23
2022-10-22T23:41:39.813Z,100506.48
2022-10-22T23:44:09.652Z,100506.34
2022-10-22T23:46:38.682Z,100505.96
2022-10-22T23:49:07.751Z,100508.42
2022-10-22T23:51:35.970Z,100517.80
2022-10-22T23:54:07.287Z,100521.40
2022-10-22T23:56:35.799Z,100526.36
2022-10-22T23:59:04.591Z,100527.63
